EZY176U EGBB-EGPH
Flight info
| Callsign | EZY176U |
|---|---|
| Flight time | N/A |
| Altitude | 26000 |
| Route | LUVUM DCT TNT N57 POL UN601 RIBEL DCT INPIP |
| Aircraft | A320/M-SDE2E3FGHIJ1RWXYZ/LB1 |
Departure
| Time | 2026-04-29 10:33 |
|---|---|
| Airport | Birmingham Airport (EGBB) |
Arrival
| Time | N/A |
|---|---|
| Airport | Edinburgh Airport (EGPH) |
| Time | Latitude | Longitude | Altitude | Speed | Heading |
|---|---|---|---|---|---|
| 2026-04-29 10:08 | 52.45344 | -1.73697 | 322 ft | 0 kts | 146° |
| 2026-04-29 10:25 | 52.45349 | -1.73702 | 321 ft | 4 kts | 146° |
| 2026-04-29 10:26 | 52.45372 | -1.73727 | 321 ft | 4 kts | 153° |
| 2026-04-29 10:26 | 52.45396 | -1.73740 | 321 ft | 4 kts | 184° |
| 2026-04-29 10:26 | 52.45417 | -1.73726 | 322 ft | 2 kts | 235° |
| 2026-04-29 10:26 | 52.45411 | -1.73742 | 320 ft | 4 kts | 236° |
| 2026-04-29 10:27 | 52.45407 | -1.73751 | 321 ft | 0 kts | 236° |
| 2026-04-29 10:30 | 52.45390 | -1.73791 | 322 ft | 14 kts | 236° |
| 2026-04-29 10:30 | 52.45323 | -1.73955 | 323 ft | 16 kts | 233° |
| 2026-04-29 10:30 | 52.45257 | -1.73951 | 323 ft | 9 kts | 147° |
| 2026-04-29 10:30 | 52.45206 | -1.73894 | 323 ft | 10 kts | 144° |
| 2026-04-29 10:31 | 52.45142 | -1.73820 | 323 ft | 13 kts | 146° |
| 2026-04-29 10:31 | 52.45052 | -1.73748 | 323 ft | 16 kts | 168° |
| 2026-04-29 10:31 | 52.44946 | -1.73648 | 323 ft | 19 kts | 149° |
| 2026-04-29 10:31 | 52.44824 | -1.73688 | 323 ft | 19 kts | 196° |
| 2026-04-29 10:32 | 52.44713 | -1.73794 | 324 ft | 19 kts | 235° |
| 2026-04-29 10:32 | 52.44659 | -1.73980 | 324 ft | 18 kts | 283° |
| 2026-04-29 10:32 | 52.44737 | -1.74076 | 325 ft | 15 kts | 326° |
| 2026-04-29 10:32 | 52.44955 | -1.74323 | 327 ft | 73 kts | 325° |
| 2026-04-29 10:33 | 52.45559 | -1.74997 | 323 ft | 134 kts | 326° |
| 2026-04-29 10:33 | 52.46406 | -1.75934 | 749 ft | 145 kts | 324° |
| 2026-04-29 10:33 | 52.47276 | -1.76868 | 1269 ft | 156 kts | 326° |
| 2026-04-29 10:33 | 52.48234 | -1.77887 | 1595 ft | 173 kts | 324° |
| 2026-04-29 10:34 | 52.49371 | -1.78860 | 1803 ft | 198 kts | 343° |
| 2026-04-29 10:34 | 52.50825 | -1.78945 | 2060 ft | 224 kts | 6° |
| 2026-04-29 10:34 | 52.52459 | -1.78619 | 2454 ft | 248 kts | 6° |
| 2026-04-29 10:34 | 52.54221 | -1.78253 | 3138 ft | 260 kts | 6° |
| 2026-04-29 10:35 | 52.56031 | -1.77871 | 4025 ft | 264 kts | 6° |
| 2026-04-29 10:35 | 52.57866 | -1.77487 | 4917 ft | 267 kts | 6° |
| 2026-04-29 10:35 | 52.59723 | -1.77102 | 5778 ft | 271 kts | 6° |
| 2026-04-29 10:35 | 52.61607 | -1.76715 | 6633 ft | 275 kts | 6° |
| 2026-04-29 10:36 | 52.62868 | -1.76456 | 7195 ft | 277 kts | 6° |
| 2026-04-29 10:36 | 52.65447 | -1.75924 | 8300 ft | 282 kts | 6° |
| 2026-04-29 10:36 | 52.67405 | -1.75523 | 9116 ft | 285 kts | 6° |
| 2026-04-29 10:36 | 52.69386 | -1.75119 | 9903 ft | 288 kts | 6° |
| 2026-04-29 10:37 | 52.71418 | -1.74704 | 10400 ft | 304 kts | 6° |
| 2026-04-29 10:37 | 52.73571 | -1.74252 | 10894 ft | 317 kts | 6° |
| 2026-04-29 10:37 | 52.75778 | -1.73758 | 11610 ft | 322 kts | 7° |
| 2026-04-29 10:37 | 52.78008 | -1.73245 | 12346 ft | 326 kts | 7° |
| 2026-04-29 10:38 | 52.80270 | -1.72723 | 13055 ft | 330 kts | 7° |
| 2026-04-29 10:38 | 52.82555 | -1.72198 | 13745 ft | 333 kts | 7° |
| 2026-04-29 10:38 | 52.84860 | -1.71669 | 14420 ft | 336 kts | 7° |
| 2026-04-29 10:38 | 52.87190 | -1.71139 | 15075 ft | 340 kts | 7° |
| 2026-04-29 10:39 | 52.89547 | -1.70608 | 15708 ft | 343 kts | 7° |
| 2026-04-29 10:39 | 52.91920 | -1.70074 | 16318 ft | 346 kts | 7° |
| 2026-04-29 10:39 | 52.94321 | -1.69530 | 16915 ft | 350 kts | 7° |
| 2026-04-29 10:39 | 52.96742 | -1.68974 | 17491 ft | 353 kts | 7° |
| 2026-04-29 10:40 | 52.99188 | -1.68413 | 18072 ft | 356 kts | 7° |